首页
METAR-TAF:

METAR-TAF

机场 :

Coonamble, 澳大利亚

纬度: 30-59-00S, 经度: 148-22-30E, 海拔: 184米

当前天气观测

该预报发布于38分钟前的01:00 UTC
风速11节,风向
温度 19°C
湿度 52%
气压 1019 hPa

METAR: YCNM 310100Z AUTO 01011KT //// // ////// 19/09 Q1019

时间: 11:38 (01:38 UTC)


TAF: 丢失

超过4000个机场的气象观测和天气预报(METAR&TAF报告)。

可查询的气象台以黄色和红色小点在地图上表示。

将鼠标移到小点上方,可查看气象台名称。

然后点击查看天气观测和预报。

如需切换地图:点击带黑十字的绿色按钮放大地图;点击带横线的绿色按钮缩小地图;或者点击绿色箭头查看邻近地区的地图。


METAR-TAF: